createdAt,value
2022-12-03T00:00:06.206Z,3.27
2022-12-03T00:07:01.406Z,3.27
2022-12-03T00:14:01.700Z,3.26
2022-12-03T00:21:02.247Z,3.26
2022-12-03T00:28:01.436Z,3.24
2022-12-03T00:35:02.310Z,3.24
2022-12-03T00:42:02.124Z,3.29
2022-12-03T00:49:01.555Z,3.29
2022-12-03T00:56:01.561Z,3.3
2022-12-03T01:00:02.208Z,3.3
2022-12-03T01:07:02.159Z,3.31
2022-12-03T01:14:01.718Z,3.31
2022-12-03T01:21:01.536Z,3.3
2022-12-03T01:28:02.206Z,3.25
2022-12-03T01:35:02.177Z,3.25
2022-12-03T01:42:01.841Z,3.33
2022-12-03T01:49:02.250Z,3.33
2022-12-03T01:56:01.919Z,3.28
2022-12-03T02:00:02.663Z,3.28
2022-12-03T02:07:02.155Z,3.33
2022-12-03T02:14:01.671Z,3.33
2022-12-03T02:21:01.777Z,3.31
2022-12-03T02:28:01.326Z,3.31
2022-12-03T02:35:02.339Z,3.32
2022-12-03T02:42:02.062Z,3.32
2022-12-03T02:49:01.498Z,3.26
2022-12-03T02:56:01.805Z,3.26
2022-12-03T03:00:02.533Z,3.27
2022-12-03T03:07:01.786Z,3.27
2022-12-03T03:14:01.831Z,3.26
2022-12-03T03:21:01.762Z,3.26
2022-12-03T03:28:02.036Z,3.28
2022-12-03T03:35:02.520Z,3.28
2022-12-03T03:42:01.700Z,3.23
2022-12-03T03:49:01.989Z,3.19
2022-12-03T03:56:01.330Z,3.19
2022-12-03T04:00:01.896Z,3.19
2022-12-03T04:07:02.274Z,3.21
2022-12-03T04:14:02.054Z,3.21
2022-12-03T04:21:01.687Z,3.21
2022-12-03T04:28:01.935Z,3.19
2022-12-03T04:35:02.606Z,3.19
2022-12-03T04:42:02.080Z,3.17
2022-12-03T04:49:01.809Z,3.17
2022-12-03T04:56:02.148Z,3.14
2022-12-03T05:00:01.843Z,3.14
2022-12-03T05:07:02.211Z,3.01
2022-12-03T05:14:01.896Z,3.01
2022-12-03T05:21:01.607Z,3.06
2022-12-03T05:28:02.017Z,3.06
2022-12-03T05:35:01.550Z,3.04
2022-12-03T05:42:01.566Z,3.04
2022-12-03T05:49:02.055Z,2.97
2022-12-03T05:56:01.847Z,2.97
2022-12-03T06:00:02.585Z,2.95
2022-12-03T06:07:01.990Z,2.95
2022-12-03T06:14:01.787Z,2.97
2022-12-03T06:21:02.162Z,2.97
2022-12-03T06:28:01.442Z,2.88
2022-12-03T06:35:01.757Z,2.88
2022-12-03T06:42:01.484Z,2.92
2022-12-03T06:49:02.161Z,2.87
2022-12-03T06:56:01.809Z,2.87
2022-12-03T07:00:02.388Z,2.87
2022-12-03T07:07:01.602Z,2.81
2022-12-03T07:14:05.421Z,2.81
2022-12-03T07:21:01.464Z,2.71
2022-12-03T07:28:01.593Z,2.66
2022-12-03T07:35:02.148Z,2.66
2022-12-03T07:42:02.081Z,2.6
2022-12-03T07:49:01.659Z,2.6
2022-12-03T07:56:02.243Z,2.57
2022-12-03T08:00:01.844Z,2.57
2022-12-03T08:07:01.880Z,2.55
2022-12-03T08:14:01.663Z,2.55
2022-12-03T08:21:01.407Z,2.52
2022-12-03T08:28:01.597Z,2.52
2022-12-03T08:35:01.554Z,2.51
2022-12-03T08:42:01.729Z,2.51
2022-12-03T08:49:02.214Z,2.5
2022-12-03T08:56:01.435Z,2.5
2022-12-03T09:00:02.034Z,2.56
2022-12-03T09:07:01.908Z,2.56
2022-12-03T09:14:01.792Z,2.59
2022-12-03T09:21:01.889Z,2.59
2022-12-03T09:28:01.810Z,2.56
2022-12-03T09:35:02.140Z,2.56
2022-12-03T09:42:01.821Z,2.66
2022-12-03T09:49:02.042Z,2.76
2022-12-03T09:56:02.273Z,2.76
2022-12-03T10:00:01.838Z,2.76
2022-12-03T10:07:01.716Z,2.85
2022-12-03T10:14:02.094Z,2.85
2022-12-03T10:21:01.349Z,2.93
2022-12-03T10:28:02.072Z,3.08
2022-12-03T10:35:01.804Z,3.08
2022-12-03T10:42:01.424Z,3.1
2022-12-03T10:49:02.142Z,3.1
2022-12-03T10:56:01.750Z,3.15
2022-12-03T11:00:02.294Z,3.15
2022-12-03T11:07:01.583Z,3.21
2022-12-03T11:14:02.124Z,3.21
2022-12-03T11:21:02.123Z,3.25
2022-12-03T11:28:01.772Z,3.25
2022-12-03T11:35:02.505Z,3.32
2022-12-03T11:42:01.915Z,3.32
2022-12-03T11:49:01.673Z,3.39
2022-12-03T11:56:04.406Z,3.39
2022-12-03T12:00:02.374Z,3.47
2022-12-03T12:07:01.847Z,3.47
2022-12-03T12:14:02.255Z,3.45
2022-12-03T12:21:01.864Z,3.45
2022-12-03T12:28:02.042Z,3.46
2022-12-03T12:35:02.384Z,3.46
2022-12-03T12:42:01.387Z,3.57
2022-12-03T12:49:01.747Z,3.53
2022-12-03T12:56:02.197Z,3.53
2022-12-03T13:00:01.703Z,3.53
2022-12-03T13:07:02.168Z,3.57
2022-12-03T13:14:01.410Z,3.57
2022-12-03T13:21:01.708Z,3.56
2022-12-03T13:28:01.994Z,3.55
2022-12-03T13:35:01.863Z,3.55
2022-12-03T13:42:01.934Z,3.55
2022-12-03T13:49:02.177Z,3.55
2022-12-03T13:56:02.139Z,3.44
2022-12-03T14:00:01.677Z,3.44
2022-12-03T14:07:02.226Z,3.58
2022-12-03T14:14:01.393Z,3.58
2022-12-03T14:21:01.398Z,3.57
2022-12-03T14:28:01.365Z,3.57
2022-12-03T14:35:06.577Z,3.48
2022-12-03T14:42:02.219Z,3.48
2022-12-03T14:49:02.275Z,3.5
2022-12-03T14:56:02.235Z,3.5
2022-12-03T15:00:01.763Z,3.45
2022-12-03T15:07:01.710Z,3.45
2022-12-03T15:14:02.292Z,3.46
2022-12-03T15:21:01.513Z,3.46
2022-12-03T15:28:01.883Z,3.4
2022-12-03T15:35:02.355Z,3.4
2022-12-03T15:42:01.450Z,3.45
2022-12-03T15:49:02.161Z,3.44
2022-12-03T15:56:01.380Z,3.44
2022-12-03T16:00:01.965Z,3.44
2022-12-03T16:07:01.640Z,3.38
2022-12-03T16:14:02.275Z,3.38
2022-12-03T16:21:01.555Z,3.37
2022-12-03T16:28:02.258Z,3.35
2022-12-03T16:35:02.407Z,3.35
2022-12-03T16:42:01.414Z,3.29
2022-12-03T16:49:01.658Z,3.29
2022-12-03T16:56:02.191Z,3.27
2022-12-03T17:00:01.864Z,3.27
2022-12-03T17:07:01.845Z,3.21
2022-12-03T17:14:01.912Z,3.21
2022-12-03T17:21:02.104Z,3.23
2022-12-03T17:28:01.906Z,3.23
2022-12-03T17:35:02.032Z,3.19
2022-12-03T17:42:01.798Z,3.19
2022-12-03T17:49:01.459Z,3.12
2022-12-03T17:56:01.580Z,3.12
2022-12-03T18:00:02.230Z,3.14
2022-12-03T18:07:02.680Z,3.14
2022-12-03T18:14:01.622Z,3.09
2022-12-03T18:21:01.297Z,3.09
2022-12-03T18:28:01.684Z,3.09
2022-12-03T18:35:01.587Z,3.09
2022-12-03T18:42:02.162Z,3.08
2022-12-03T18:49:02.194Z,3
2022-12-03T18:56:01.957Z,3
2022-12-03T19:00:02.608Z,3
2022-12-03T19:07:01.480Z,3.03
2022-12-03T19:14:01.890Z,3.02
2022-12-03T19:21:02.244Z,3.02
2022-12-03T19:28:01.943Z,3.03
2022-12-03T19:35:01.529Z,3.03
2022-12-03T19:42:01.480Z,2.99
2022-12-03T19:49:01.772Z,2.99
2022-12-03T19:56:01.714Z,3.02
2022-12-03T20:00:02.315Z,3.02
2022-12-03T20:07:02.247Z,3.01
2022-12-03T20:14:01.439Z,3.01
2022-12-03T20:21:01.373Z,2.96
2022-12-03T20:28:02.147Z,2.96
2022-12-03T20:35:01.883Z,2.99
2022-12-03T20:42:02.249Z,2.99
2022-12-03T20:49:02.268Z,2.92
2022-12-03T20:56:02.172Z,2.92
2022-12-03T21:00:01.760Z,2.92
2022-12-03T21:07:01.589Z,2.92
2022-12-03T21:14:01.735Z,2.91
2022-12-03T21:21:01.676Z,2.91
2022-12-03T21:28:01.401Z,2.92
2022-12-03T21:35:02.118Z,2.9
2022-12-03T21:42:34.007Z,2.9
2022-12-03T21:49:01.368Z,2.89
2022-12-03T21:56:01.345Z,2.89
2022-12-03T22:00:01.903Z,2.89
2022-12-03T22:07:01.405Z,2.87
2022-12-03T22:14:01.620Z,2.8
2022-12-03T22:21:02.244Z,2.8
2022-12-03T22:28:01.904Z,2.81
2022-12-03T22:35:02.459Z,2.81
2022-12-03T22:42:01.482Z,2.82
2022-12-03T22:49:06.519Z,2.82
2022-12-03T22:56:02.111Z,2.78
2022-12-03T23:00:01.623Z,2.78
2022-12-03T23:07:01.609Z,2.79
2022-12-03T23:14:02.133Z,2.79
2022-12-03T23:21:01.349Z,2.81
2022-12-03T23:28:02.109Z,2.81
2022-12-03T23:35:01.532Z,2.83
2022-12-03T23:42:01.488Z,2.83
2022-12-03T23:49:01.533Z,2.81
2022-12-03T23:56:01.968Z,2.78
